createdAt,value
2022-12-25T00:02:24.867Z,97156.16
2022-12-25T00:04:56.692Z,97147.03
2022-12-25T00:07:28.268Z,97152.13
2022-12-25T00:09:59.845Z,97151.38
2022-12-25T00:12:31.465Z,97151.38
2022-12-25T00:15:03.770Z,97152.44
2022-12-25T00:17:35.422Z,97145.47
2022-12-25T00:20:08.372Z,97145.31
2022-12-25T00:22:39.972Z,97145.03
2022-12-25T00:25:11.570Z,97157.09
2022-12-25T00:27:43.180Z,97146.59
2022-12-25T00:30:14.881Z,97146.69
2022-12-25T00:32:46.456Z,97140.06
2022-12-25T00:35:18.287Z,97143.31
2022-12-25T00:37:49.863Z,97132.47
2022-12-25T00:40:21.404Z,97141.34
2022-12-25T00:42:53.052Z,97136.91
2022-12-25T00:45:24.778Z,97140.13
2022-12-25T00:47:56.508Z,97135.78
2022-12-25T00:50:28.088Z,97143.91
2022-12-25T00:52:59.721Z,97137.75
2022-12-25T00:55:31.576Z,97138.22
2022-12-25T00:58:03.178Z,97141.38
2022-12-25T01:00:34.792Z,97135.94
2022-12-25T01:03:06.520Z,97136.56
2022-12-25T01:05:38.208Z,97137.94
2022-12-25T01:08:10.212Z,97136.22
2022-12-25T01:10:41.749Z,97131.09
2022-12-25T01:13:13.296Z,97129.84
2022-12-25T01:15:44.838Z,97126.75
2022-12-25T01:18:16.374Z,97125.00
2022-12-25T01:20:48.505Z,97122.13
2022-12-25T01:23:20.068Z,97126.81
2022-12-25T01:25:51.610Z,97128.72
2022-12-25T01:28:23.174Z,97124.72
2022-12-25T01:30:54.752Z,97123.97
2022-12-25T01:33:28.081Z,97117.69
2022-12-25T01:35:59.623Z,97118.78
2022-12-25T01:38:31.199Z,97124.06
2022-12-25T01:41:02.751Z,97122.06
2022-12-25T01:43:34.797Z,97132.47
2022-12-25T01:46:06.416Z,97123.31
2022-12-25T01:48:39.622Z,97122.41
2022-12-25T01:51:26.382Z,97113.84
2022-12-25T01:54:04.876Z,97120.06
2022-12-25T01:56:40.077Z,97116.34
2022-12-25T01:59:17.403Z,97126.66
2022-12-25T02:01:49.537Z,97127.63
2022-12-25T02:04:42.048Z,97139.09
2022-12-25T02:07:20.391Z,97134.41
2022-12-25T02:09:53.274Z,97129.63
2022-12-25T02:12:30.183Z,97128.06
2022-12-25T02:15:15.494Z,97133.66
2022-12-25T02:18:07.201Z,97131.63
2022-12-25T02:21:04.922Z,97129.19
2022-12-25T02:24:21.676Z,97125.28
2022-12-25T02:26:56.121Z,97112.53
2022-12-25T02:29:56.944Z,97120.47
2022-12-25T02:32:52.608Z,97118.28
2022-12-25T02:35:31.264Z,97115.50
2022-12-25T02:38:12.217Z,97116.03
2022-12-25T02:40:51.321Z,97119.22
2022-12-25T02:43:43.265Z,97107.66
2022-12-25T02:46:19.115Z,97105.63
2022-12-25T02:48:59.254Z,97096.50
2022-12-25T02:51:37.084Z,97095.53
2022-12-25T02:54:17.392Z,97097.97
2022-12-25T02:56:52.745Z,97092.19
2022-12-25T02:59:28.674Z,97089.78
2022-12-25T03:02:04.681Z,97089.78
2022-12-25T03:04:39.033Z,97093.78
2022-12-25T03:07:17.009Z,97087.66
2022-12-25T03:10:00.949Z,97079.63
2022-12-25T03:13:01.940Z,97077.63
2022-12-25T03:15:34.720Z,97075.66
2022-12-25T03:18:15.646Z,97069.72
2022-12-25T03:20:47.183Z,97067.44
2022-12-25T03:23:24.568Z,97062.88
2022-12-25T03:25:56.210Z,97061.28
2022-12-25T03:28:29.113Z,97056.00
2022-12-25T03:31:18.417Z,97050.66
2022-12-25T03:34:15.054Z,97048.13
2022-12-25T03:37:00.214Z,97046.72
2022-12-25T03:40:14.484Z,97044.97
2022-12-25T03:42:59.778Z,97054.97
2022-12-25T03:45:53.274Z,97053.47
2022-12-25T03:48:30.632Z,97042.34
2022-12-25T03:51:12.516Z,97041.69
2022-12-25T03:53:56.128Z,97032.09
2022-12-25T03:56:31.089Z,97031.91
2022-12-25T03:59:02.856Z,97035.91
2022-12-25T04:01:34.540Z,97037.00
2022-12-25T04:04:06.228Z,97026.13
2022-12-25T04:06:38.435Z,97030.94
2022-12-25T04:09:09.960Z,97029.38
2022-12-25T04:11:41.530Z,97027.31
2022-12-25T04:14:14.049Z,97025.56
2022-12-25T04:16:45.696Z,97027.31
2022-12-25T04:19:17.236Z,97031.69
2022-12-25T04:21:48.843Z,97030.63
2022-12-25T04:24:20.447Z,97030.09
2022-12-25T04:26:52.014Z,97024.41
2022-12-25T04:29:23.614Z,97030.50
2022-12-25T04:31:55.193Z,97032.88
2022-12-25T04:34:29.588Z,97027.03
2022-12-25T04:37:01.201Z,97034.75
2022-12-25T04:39:32.778Z,97034.88
2022-12-25T04:42:04.723Z,97031.59
2022-12-25T04:44:36.283Z,97018.59
2022-12-25T04:47:11.525Z,97019.25
2022-12-25T04:49:43.413Z,97020.41
2022-12-25T04:52:14.973Z,97010.34
2022-12-25T04:54:46.534Z,97009.09
2022-12-25T04:57:18.083Z,97010.72
2022-12-25T04:59:49.698Z,97006.06
2022-12-25T05:02:21.384Z,96995.31
2022-12-25T05:04:53.183Z,97000.31
2022-12-25T05:07:24.776Z,97007.41
2022-12-25T05:09:56.400Z,97012.75
2022-12-25T05:12:27.978Z,97014.19
2022-12-25T05:14:59.571Z,97021.94
2022-12-25T05:17:31.226Z,97010.44
2022-12-25T05:20:03.588Z,97015.50
2022-12-25T05:22:35.137Z,97012.34
2022-12-25T05:25:07.058Z,97021.63
2022-12-25T05:27:38.612Z,97007.06
2022-12-25T05:30:10.424Z,97016.34
2022-12-25T05:32:42.071Z,97007.34
2022-12-25T05:35:14.022Z,97007.06
2022-12-25T05:37:45.628Z,97009.25
2022-12-25T05:40:17.312Z,97009.66
2022-12-25T05:42:49.081Z,97011.28
2022-12-25T05:45:20.745Z,97003.69
2022-12-25T05:47:52.655Z,97010.16
2022-12-25T05:50:24.332Z,97021.13
2022-12-25T05:53:11.563Z,97026.66
2022-12-25T05:55:43.914Z,97011.34
2022-12-25T05:58:15.543Z,97019.72
2022-12-25T06:00:47.102Z,97014.59
2022-12-25T06:03:18.769Z,97017.69
2022-12-25T06:05:50.533Z,97026.28
2022-12-25T06:08:22.104Z,97023.84
2022-12-25T06:10:53.685Z,97029.25
2022-12-25T06:13:25.377Z,97020.72
2022-12-25T06:15:57.090Z,97024.13
2022-12-25T06:18:28.714Z,97027.09
2022-12-25T06:21:00.242Z,97026.78
2022-12-25T06:23:31.854Z,97038.00
2022-12-25T06:26:10.267Z,97038.00
2022-12-25T06:28:42.424Z,97041.75
2022-12-25T06:31:17.478Z,97046.44
2022-12-25T06:33:49.740Z,97041.47
2022-12-25T06:36:27.358Z,97045.59
2022-12-25T06:39:02.142Z,97052.28
2022-12-25T06:41:33.860Z,97045.78
2022-12-25T06:44:05.558Z,97049.81
2022-12-25T06:46:37.127Z,97057.22
2022-12-25T06:49:10.053Z,97047.88
2022-12-25T06:51:41.607Z,97047.28
2022-12-25T06:54:13.589Z,97042.63
2022-12-25T06:56:45.135Z,97037.94
2022-12-25T06:59:17.120Z,97039.38
2022-12-25T07:01:55.860Z,97037.66
2022-12-25T07:04:30.898Z,97047.69
2022-12-25T07:07:08.355Z,97037.84
2022-12-25T07:09:41.250Z,97044.03
2022-12-25T07:12:19.455Z,97044.38
2022-12-25T07:14:54.669Z,97040.16
2022-12-25T07:17:26.445Z,97037.94
2022-12-25T07:19:58.035Z,97035.50
2022-12-25T07:22:29.991Z,97043.28
2022-12-25T07:25:01.585Z,97049.53
2022-12-25T07:27:33.346Z,97052.03
2022-12-25T07:30:05.479Z,97049.22
2022-12-25T07:32:37.060Z,97055.34
2022-12-25T07:35:08.913Z,97058.00
2022-12-25T07:37:40.635Z,97054.06
2022-12-25T07:40:12.823Z,97058.38
2022-12-25T07:42:44.388Z,97062.66
2022-12-25T07:45:16.097Z,97063.47
2022-12-25T07:47:47.766Z,97071.91
2022-12-25T07:50:19.548Z,97072.28
2022-12-25T07:52:51.127Z,97081.59
2022-12-25T07:55:23.117Z,97079.31
2022-12-25T07:57:54.733Z,97082.19
2022-12-25T08:00:26.441Z,97075.25
2022-12-25T08:02:59.353Z,97084.25
2022-12-25T08:05:32.762Z,97086.47
2022-12-25T08:08:04.460Z,97088.84
2022-12-25T08:10:36.328Z,97100.06
2022-12-25T08:13:14.216Z,97094.78
2022-12-25T08:15:46.234Z,97087.13
2022-12-25T08:18:17.805Z,97091.75
2022-12-25T08:20:49.443Z,97094.78
2022-12-25T08:23:21.047Z,97097.53
2022-12-25T08:25:52.694Z,97095.50
2022-12-25T08:28:24.374Z,97112.66
2022-12-25T08:30:56.996Z,97107.78
2022-12-25T08:33:28.660Z,97110.25
2022-12-25T08:36:06.184Z,97117.97
2022-12-25T08:38:38.939Z,97114.34
2022-12-25T08:41:11.989Z,97107.78
2022-12-25T08:43:44.158Z,97097.66
2022-12-25T08:46:16.024Z,97106.91
2022-12-25T08:48:49.254Z,97113.25
2022-12-25T08:51:24.099Z,97113.66
2022-12-25T08:54:00.121Z,97114.03
2022-12-25T08:56:32.605Z,97112.66
2022-12-25T08:59:04.224Z,97115.25
2022-12-25T09:01:35.897Z,97109.09
2022-12-25T09:04:07.614Z,97097.78
2022-12-25T09:06:39.170Z,97114.78
2022-12-25T09:09:10.879Z,97105.97
2022-12-25T09:11:42.462Z,97104.34
2022-12-25T09:14:14.492Z,97113.69
2022-12-25T09:16:46.064Z,97114.25
2022-12-25T09:19:17.607Z,97120.84
2022-12-25T09:21:49.144Z,97120.78
2022-12-25T09:24:20.761Z,97125.22
2022-12-25T09:26:52.527Z,97125.06
2022-12-25T09:29:24.113Z,97129.78
2022-12-25T09:31:55.703Z,97122.59
2022-12-25T09:34:27.301Z,97120.09
2022-12-25T09:36:58.885Z,97120.22
2022-12-25T09:39:30.439Z,97126.38
2022-12-25T09:42:10.711Z,97105.94
2022-12-25T09:44:55.206Z,97106.31
2022-12-25T09:47:31.560Z,97113.59
2022-12-25T09:50:07.092Z,97108.53
2022-12-25T09:52:50.983Z,97111.22
2022-12-25T09:55:25.938Z,97111.13
2022-12-25T09:58:01.492Z,97109.38
2022-12-25T10:00:54.412Z,97097.13
2022-12-25T10:03:28.757Z,97090.97
2022-12-25T10:06:18.487Z,97093.41
2022-12-25T10:09:02.042Z,97106.50
2022-12-25T10:11:51.823Z,97104.84
2022-12-25T10:14:29.184Z,97099.72
2022-12-25T10:17:11.304Z,97107.56
2022-12-25T10:20:07.516Z,97112.19
2022-12-25T10:22:47.732Z,97102.91
2022-12-25T10:25:25.007Z,97097.66
2022-12-25T10:28:10.588Z,97095.97
2022-12-25T10:30:43.992Z,97091.25
2022-12-25T10:33:17.394Z,97080.34
2022-12-25T10:35:49.813Z,97088.50
2022-12-25T10:38:22.490Z,97088.88
2022-12-25T10:41:12.747Z,97086.53
2022-12-25T10:43:55.788Z,97089.94
2022-12-25T10:46:29.536Z,97100.28
2022-12-25T10:49:03.136Z,97088.88
2022-12-25T10:51:38.215Z,97078.31
2022-12-25T10:54:22.974Z,97069.72
2022-12-25T10:56:57.219Z,97067.28
2022-12-25T10:59:34.065Z,97077.53
2022-12-25T11:02:18.645Z,97080.19
2022-12-25T11:04:52.475Z,97065.63
2022-12-25T11:07:26.393Z,97046.69
2022-12-25T11:10:05.909Z,97028.72
2022-12-25T11:12:44.882Z,97036.44
2022-12-25T11:15:40.231Z,97067.84
2022-12-25T11:18:48.793Z,97083.69
2022-12-25T11:21:28.353Z,97071.59
2022-12-25T11:24:02.070Z,97079.34
2022-12-25T11:26:48.336Z,97077.75
2022-12-25T11:29:28.961Z,97062.75
2022-12-25T11:32:04.214Z,97051.88
2022-12-25T11:34:42.506Z,97028.84
2022-12-25T11:37:29.458Z,97045.56
2022-12-25T11:40:02.027Z,97047.25
2022-12-25T11:42:41.755Z,97047.59
2022-12-25T11:45:37.467Z,97060.88
2022-12-25T11:48:19.380Z,97080.25
2022-12-25T11:51:03.382Z,97067.44
2022-12-25T11:53:43.616Z,97059.56
2022-12-25T11:56:20.503Z,97059.94
2022-12-25T11:59:10.475Z,97059.75
2022-12-25T12:01:49.178Z,97058.38
2022-12-25T12:04:36.898Z,97052.97
2022-12-25T12:07:27.324Z,97040.53
2022-12-25T12:10:23.055Z,97044.22
2022-12-25T12:13:00.134Z,97052.03
2022-12-25T12:15:51.332Z,97051.59
2022-12-25T12:18:26.006Z,97052.97
2022-12-25T12:21:19.894Z,97052.78
2022-12-25T12:24:01.210Z,97048.34
2022-12-25T12:26:37.671Z,97045.16
2022-12-25T12:29:25.600Z,97055.13
2022-12-25T12:32:01.662Z,97050.16
2022-12-25T12:34:42.789Z,97048.63
2022-12-25T12:37:34.253Z,97039.13
2022-12-25T12:40:21.955Z,97047.06
2022-12-25T12:42:54.821Z,97031.91
2022-12-25T12:45:32.326Z,97044.09
2022-12-25T12:48:24.803Z,97043.81
2022-12-25T12:51:05.774Z,97050.34
2022-12-25T12:53:42.567Z,97037.25
2022-12-25T12:56:19.875Z,97055.69
2022-12-25T12:58:51.497Z,97049.44
2022-12-25T13:01:35.270Z,97042.78
2022-12-25T13:04:31.400Z,97051.06
2022-12-25T13:07:16.849Z,97054.97
2022-12-25T13:10:13.455Z,97046.09
2022-12-25T13:12:45.522Z,97063.03
2022-12-25T13:15:19.375Z,97050.84
2022-12-25T13:17:51.422Z,97053.78
2022-12-25T13:20:40.487Z,97050.38
2022-12-25T13:23:29.097Z,97046.06
2022-12-25T13:26:18.912Z,97048.34
2022-12-25T13:28:50.475Z,97042.84
2022-12-25T13:31:27.825Z,97042.47
2022-12-25T13:34:20.100Z,97043.72
2022-12-25T13:36:51.706Z,97042.63
2022-12-25T13:39:23.669Z,97037.22
2022-12-25T13:41:55.508Z,97037.25
2022-12-25T13:44:31.059Z,97041.84
2022-12-25T13:47:30.668Z,97036.94
2022-12-25T13:50:30.299Z,97039.41
2022-12-25T13:53:13.902Z,97050.38
2022-12-25T13:55:51.833Z,97039.53
2022-12-25T13:58:28.750Z,97044.50
2022-12-25T14:01:03.359Z,97051.81
2022-12-25T14:03:37.656Z,97059.53
2022-12-25T14:06:15.092Z,97055.72
2022-12-25T14:08:48.508Z,97057.69
2022-12-25T14:11:24.172Z,97053.03
2022-12-25T14:14:03.763Z,97045.56
2022-12-25T14:16:36.166Z,97048.84
2022-12-25T14:19:30.039Z,97049.59
2022-12-25T14:22:19.183Z,97051.56
2022-12-25T14:24:51.278Z,97048.97
2022-12-25T14:27:29.010Z,97060.16
2022-12-25T14:30:00.873Z,97044.06
2022-12-25T14:32:43.337Z,97050.25
2022-12-25T14:35:23.072Z,97053.38
2022-12-25T14:38:00.231Z,97048.84
2022-12-25T14:40:33.558Z,97058.75
2022-12-25T14:43:23.470Z,97048.88
2022-12-25T14:46:00.714Z,97042.84
2022-12-25T14:48:33.421Z,97038.44
2022-12-25T14:51:14.856Z,97044.44
2022-12-25T14:53:51.587Z,97032.78
2022-12-25T14:56:26.445Z,97041.22
2022-12-25T14:58:59.745Z,97035.53
2022-12-25T15:01:39.005Z,97037.91
2022-12-25T15:04:10.613Z,97036.38
2022-12-25T15:06:58.489Z,97045.41
2022-12-25T15:09:30.213Z,97039.66
2022-12-25T15:12:02.204Z,97043.28
2022-12-25T15:14:33.769Z,97042.41
2022-12-25T15:17:05.391Z,97042.41
2022-12-25T15:19:38.994Z,97045.28
2022-12-25T15:22:13.121Z,97043.38
2022-12-25T15:24:48.720Z,97041.31
2022-12-25T15:27:20.331Z,97037.94
2022-12-25T15:32:43.559Z,97022.03
2022-12-25T15:35:18.788Z,97025.94
2022-12-25T15:37:50.367Z,97031.38
2022-12-25T15:40:21.946Z,97031.50
2022-12-25T15:42:56.301Z,97028.41
2022-12-25T15:45:29.880Z,97016.53
2022-12-25T15:48:01.527Z,97025.94
2022-12-25T15:50:33.174Z,97024.81
2022-12-25T15:53:04.829Z,97023.63
2022-12-25T15:55:36.380Z,97025.06
2022-12-25T15:58:13.129Z,97035.13
2022-12-25T16:00:44.871Z,97038.47
2022-12-25T16:03:16.498Z,97026.56
2022-12-25T16:05:48.396Z,97032.53
2022-12-25T16:08:20.112Z,97034.25
2022-12-25T16:10:51.711Z,97029.19
2022-12-25T16:13:23.265Z,97029.41
2022-12-25T16:15:54.862Z,97023.91
2022-12-25T16:18:26.648Z,97037.72
2022-12-25T16:20:59.656Z,97034.13
2022-12-25T16:23:31.432Z,97046.09
2022-12-25T16:26:03.054Z,97049.06
2022-12-25T16:28:34.604Z,97045.38
2022-12-25T16:31:06.775Z,97040.84
2022-12-25T16:33:38.508Z,97035.69
2022-12-25T16:36:10.085Z,97039.13
2022-12-25T16:38:42.045Z,97038.06
2022-12-25T16:41:14.132Z,97054.41
2022-12-25T16:43:45.813Z,97060.53
2022-12-25T16:46:20.728Z,97059.13
2022-12-25T16:48:52.426Z,97070.41
2022-12-25T16:51:24.070Z,97066.44
2022-12-25T16:53:55.869Z,97063.03
2022-12-25T16:56:27.473Z,97062.44
2022-12-25T16:58:59.646Z,97069.19
2022-12-25T17:01:31.388Z,97083.59
2022-12-25T17:04:03.154Z,97091.22
2022-12-25T17:06:35.168Z,97088.34
2022-12-25T17:09:07.272Z,97083.59
2022-12-25T17:11:38.860Z,97080.47
2022-12-25T17:14:10.759Z,97077.63
2022-12-25T17:16:42.573Z,97075.25
2022-12-25T17:19:23.129Z,97075.44
2022-12-25T17:21:54.710Z,97078.28
2022-12-25T17:24:27.224Z,97078.81
2022-12-25T17:26:58.790Z,97079.94
2022-12-25T17:29:30.514Z,97083.78
2022-12-25T17:32:02.362Z,97086.69
2022-12-25T17:34:34.115Z,97086.91
2022-12-25T17:37:05.795Z,97080.25
2022-12-25T17:39:37.360Z,97059.03
2022-12-25T17:42:10.087Z,97065.84
2022-12-25T17:44:41.657Z,97076.47
2022-12-25T17:47:13.241Z,97086.97
2022-12-25T17:49:46.362Z,97073.50
2022-12-25T17:52:17.978Z,97071.63
2022-12-25T17:54:49.571Z,97084.56
2022-12-25T17:57:21.176Z,97089.00
2022-12-25T17:59:52.719Z,97080.78
2022-12-25T18:02:24.539Z,97095.25
2022-12-25T18:04:56.835Z,97086.28
2022-12-25T18:07:28.372Z,97078.97
2022-12-25T18:09:59.947Z,97086.72
2022-12-25T18:12:31.561Z,97087.53
2022-12-25T18:15:03.473Z,97086.69
2022-12-25T18:17:35.096Z,97078.38
2022-12-25T18:20:07.329Z,97071.50
2022-12-25T18:22:38.880Z,97070.31
2022-12-25T18:25:10.484Z,97070.84
2022-12-25T18:27:42.099Z,97066.03
2022-12-25T18:30:13.835Z,97067.97
2022-12-25T18:32:45.417Z,97056.88
2022-12-25T18:35:17.005Z,97074.72
2022-12-25T18:37:48.635Z,97074.94
2022-12-25T18:40:20.275Z,97067.63
2022-12-25T18:42:56.284Z,97076.13
2022-12-25T18:45:31.039Z,97080.72
2022-12-25T18:48:03.129Z,97075.69
2022-12-25T18:50:40.038Z,97067.47
2022-12-25T18:53:11.598Z,97065.97
2022-12-25T18:55:43.175Z,97067.16
2022-12-25T18:58:14.722Z,97064.88
2022-12-25T19:00:46.442Z,97075.50
2022-12-25T19:03:18.388Z,97078.22
2022-12-25T19:05:49.984Z,97086.22
2022-12-25T19:08:21.672Z,97086.84
2022-12-25T19:10:53.230Z,97097.53
2022-12-25T19:13:24.835Z,97092.50
2022-12-25T19:15:59.958Z,97098.53
2022-12-25T19:18:31.921Z,97094.81
2022-12-25T19:21:05.336Z,97100.72
2022-12-25T19:23:37.269Z,97096.53
2022-12-25T19:26:10.466Z,97103.97
2022-12-25T19:28:42.045Z,97101.56
2022-12-25T19:31:14.043Z,97107.09
2022-12-25T19:33:45.667Z,97108.47
2022-12-25T19:36:17.355Z,97090.00
2022-12-25T19:38:48.922Z,97103.09
2022-12-25T19:41:20.636Z,97111.88
2022-12-25T19:43:52.647Z,97112.91
2022-12-25T19:46:31.945Z,97112.25
2022-12-25T19:49:04.121Z,97112.28
2022-12-25T19:51:38.576Z,97110.25
2022-12-25T19:54:14.614Z,97117.53
2022-12-25T19:56:46.741Z,97120.13
2022-12-25T19:59:18.329Z,97128.75
2022-12-25T20:01:50.597Z,97132.28
2022-12-25T20:04:22.663Z,97124.28
2022-12-25T20:06:54.196Z,97128.81
2022-12-25T20:09:25.804Z,97135.88
2022-12-25T20:11:57.339Z,97135.06
2022-12-25T20:14:28.964Z,97137.91
2022-12-25T20:17:00.728Z,97159.25
2022-12-25T20:19:32.356Z,97164.78
2022-12-25T20:22:05.015Z,97169.28
2022-12-25T20:24:36.560Z,97173.38
2022-12-25T20:27:08.129Z,97177.31
2022-12-25T20:29:39.697Z,97175.19
2022-12-25T20:32:11.396Z,97179.75
2022-12-25T20:34:43.070Z,97187.66
2022-12-25T20:37:14.654Z,97188.25
2022-12-25T20:39:46.238Z,97184.50
2022-12-25T20:42:17.803Z,97196.69
2022-12-25T20:44:49.529Z,97198.06
2022-12-25T20:47:21.119Z,97192.41
2022-12-25T20:49:52.692Z,97187.97
2022-12-25T20:52:24.417Z,97188.53
2022-12-25T20:54:56.032Z,97191.72
2022-12-25T20:57:27.634Z,97205.56
2022-12-25T20:59:59.198Z,97195.69
2022-12-25T21:02:34.635Z,97203.97
2022-12-25T21:05:08.240Z,97218.34
2022-12-25T21:07:39.814Z,97218.81
2022-12-25T21:10:11.553Z,97219.94
2022-12-25T21:12:43.085Z,97230.56
2022-12-25T21:15:15.860Z,97226.06
2022-12-25T21:17:47.626Z,97231.13
2022-12-25T21:20:19.196Z,97246.28
2022-12-25T21:22:50.719Z,97249.72
2022-12-25T21:25:22.244Z,97247.56
2022-12-25T21:27:54.008Z,97242.78
2022-12-25T21:30:25.730Z,97246.81
2022-12-25T21:32:57.344Z,97246.25
2022-12-25T21:35:28.964Z,97241.75
2022-12-25T21:38:00.559Z,97251.84
2022-12-25T21:40:35.172Z,97252.00
2022-12-25T21:43:06.946Z,97262.41
2022-12-25T21:45:38.525Z,97258.00
2022-12-25T21:48:10.142Z,97252.69
2022-12-25T21:50:41.714Z,97264.34
2022-12-25T21:53:17.889Z,97268.91
2022-12-25T21:56:00.566Z,97267.84
2022-12-25T21:58:32.257Z,97260.94
2022-12-25T22:01:04.246Z,97267.28
2022-12-25T22:03:36.146Z,97275.28
2022-12-25T22:06:07.787Z,97283.81
2022-12-25T22:08:39.342Z,97273.69
2022-12-25T22:11:10.921Z,97279.78
2022-12-25T22:13:42.608Z,97283.69
2022-12-25T22:16:14.271Z,97289.25
2022-12-25T22:18:46.077Z,97289.56
2022-12-25T22:21:19.071Z,97299.84
2022-12-25T22:23:51.121Z,97299.69
2022-12-25T22:26:22.672Z,97300.19
2022-12-25T22:28:54.570Z,97296.75
2022-12-25T22:31:26.379Z,97302.88
2022-12-25T22:34:00.949Z,97305.56
2022-12-25T22:36:32.509Z,97306.94
2022-12-25T22:39:04.101Z,97314.16
2022-12-25T22:41:35.782Z,97306.69
2022-12-25T22:44:17.080Z,97314.41
2022-12-25T22:46:49.813Z,97321.88
2022-12-25T22:49:21.642Z,97321.63
2022-12-25T22:51:53.837Z,97323.47
2022-12-25T22:54:29.631Z,97327.47
2022-12-25T22:57:01.257Z,97326.66
2022-12-25T22:59:33.200Z,97333.03
2022-12-25T23:02:04.916Z,97330.09
2022-12-25T23:04:36.748Z,97335.16
2022-12-25T23:07:08.356Z,97337.31
2022-12-25T23:09:41.963Z,97342.09
2022-12-25T23:12:13.556Z,97341.84
2022-12-25T23:14:45.111Z,97346.63
2022-12-25T23:17:16.666Z,97350.63
2022-12-25T23:19:48.217Z,97346.63
2022-12-25T23:22:19.808Z,97349.75
2022-12-25T23:24:51.382Z,97357.00
2022-12-25T23:27:22.984Z,97349.03
2022-12-25T23:29:54.637Z,97350.84
2022-12-25T23:32:26.708Z,97354.34
2022-12-25T23:34:58.312Z,97356.19
2022-12-25T23:37:30.051Z,97357.81
2022-12-25T23:40:02.846Z,97355.91
2022-12-25T23:42:34.450Z,97357.81
2022-12-25T23:45:06.522Z,97362.88
2022-12-25T23:47:38.107Z,97351.97
2022-12-25T23:50:09.779Z,97351.16
2022-12-25T23:52:41.333Z,97353.28
2022-12-25T23:55:12.911Z,97351.41
2022-12-25T23:57:44.484Z,97362.88
